createdAt,value
2022-08-03T00:01:41.502Z,98.80
2022-08-03T00:04:10.207Z,98.70
2022-08-03T00:06:38.258Z,98.50
2022-08-03T00:09:07.469Z,99.30
2022-08-03T00:11:35.566Z,98.90
2022-08-03T00:14:03.369Z,99.00
2022-08-03T00:16:31.095Z,99.50
2022-08-03T00:19:00.841Z,98.90
2022-08-03T00:21:28.748Z,98.80
2022-08-03T00:23:56.560Z,98.80
2022-08-03T00:26:25.607Z,99.00
2022-08-03T00:28:53.414Z,99.30
2022-08-03T00:31:40.078Z,98.80
2022-08-03T00:34:09.142Z,98.30
2022-08-03T00:36:36.876Z,99.30
2022-08-03T00:39:04.752Z,98.80
2022-08-03T00:41:33.829Z,98.30
2022-08-03T00:44:01.964Z,98.30
2022-08-03T00:46:29.702Z,98.90
2022-08-03T00:48:57.505Z,99.80
2022-08-03T00:51:25.278Z,99.90
2022-08-03T00:53:53.011Z,99.50
2022-08-03T00:56:20.740Z,99.50
2022-08-03T00:58:50.366Z,99.50
2022-08-03T01:01:18.126Z,98.20
2022-08-03T01:03:45.895Z,98.70
2022-08-03T01:06:16.597Z,98.40
2022-08-03T01:08:47.777Z,98.20
2022-08-03T01:11:18.553Z,99.00
2022-08-03T01:14:01.226Z,99.60
2022-08-03T01:16:43.112Z,98.60
2022-08-03T01:19:18.952Z,98.80
2022-08-03T01:21:51.556Z,98.40
2022-08-03T01:24:32.820Z,98.50
2022-08-03T01:27:06.160Z,99.20
2022-08-03T01:29:40.565Z,98.60
2022-08-03T01:32:58.669Z,99.10
2022-08-03T01:35:01.003Z,97.20
2022-08-03T01:37:30.958Z,98.00
2022-08-03T01:39:59.172Z,99.30
2022-08-03T01:42:27.443Z,98.10
2022-08-03T01:44:58.292Z,98.90
2022-08-03T01:47:28.380Z,98.30
2022-08-03T01:49:57.479Z,99.00
2022-08-03T01:52:25.912Z,99.90
2022-08-03T01:54:54.362Z,99.90
2022-08-03T01:57:23.442Z,99.60
2022-08-03T01:59:51.650Z,99.70
2022-08-03T02:02:32.599Z,99.90
2022-08-03T02:05:01.978Z,99.60
2022-08-03T02:07:30.340Z,98.50
2022-08-03T02:09:59.027Z,99.70
2022-08-03T02:12:27.546Z,99.80
2022-08-03T02:14:56.433Z,99.60
2022-08-03T02:17:40.136Z,98.90
2022-08-03T02:20:09.147Z,99.90
2022-08-03T02:22:37.054Z,99.90
2022-08-03T02:25:05.018Z,99.50
2022-08-03T02:27:34.074Z,99.80
2022-08-03T02:30:03.563Z,99.90
2022-08-03T02:32:35.283Z,99.90
2022-08-03T02:35:04.830Z,99.90
2022-08-03T02:37:35.181Z,99.90
2022-08-03T02:40:03.702Z,99.50
2022-08-03T02:42:32.756Z,99.50
2022-08-03T02:45:03.312Z,99.10
2022-08-03T02:47:54.516Z,99.20
2022-08-03T02:50:21.701Z,99.90
2022-08-03T02:52:50.715Z,99.90
2022-08-03T02:55:20.622Z,99.90
2022-08-03T02:57:48.573Z,99.90
2022-08-03T03:00:19.350Z,99.90
2022-08-03T03:02:57.847Z,99.50
2022-08-03T03:05:56.009Z,99.60
2022-08-03T03:08:17.905Z,99.90
2022-08-03T03:10:47.484Z,99.90
2022-08-03T03:13:16.054Z,99.80
2022-08-03T03:15:46.135Z,99.90
2022-08-03T03:18:20.129Z,99.60
2022-08-03T03:20:52.522Z,99.70
2022-08-03T03:23:21.129Z,99.80
2022-08-03T03:25:49.421Z,99.10
2022-08-03T03:28:17.291Z,99.80
2022-08-03T03:30:45.371Z,99.80
2022-08-03T03:33:20.773Z,99.20
2022-08-03T03:35:48.588Z,99.90
2022-08-03T03:38:17.687Z,99.90
2022-08-03T03:40:45.555Z,99.90
2022-08-03T03:43:13.586Z,99.90
2022-08-03T03:45:42.005Z,99.90
2022-08-03T03:48:10.896Z,99.90
2022-08-03T03:50:40.807Z,99.90
2022-08-03T03:53:10.276Z,99.90
2022-08-03T03:55:59.008Z,99.90
2022-08-03T03:58:27.811Z,99.90
2022-08-03T04:00:55.638Z,99.80
2022-08-03T04:03:23.825Z,99.90
2022-08-03T04:06:09.337Z,99.90
2022-08-03T04:08:54.582Z,99.90
2022-08-03T04:11:30.137Z,99.90
2022-08-03T04:14:01.930Z,99.90
2022-08-03T04:16:31.566Z,99.90
2022-08-03T04:19:01.934Z,99.90
2022-08-03T04:21:30.908Z,99.90
2022-08-03T04:24:00.183Z,99.90
2022-08-03T04:26:31.094Z,99.90
2022-08-03T04:28:59.668Z,99.90
2022-08-03T04:31:28.223Z,99.90
2022-08-03T04:33:56.385Z,99.90
2022-08-03T04:36:25.994Z,99.90
2022-08-03T04:38:56.299Z,99.90
2022-08-03T04:41:25.898Z,99.90
2022-08-03T04:43:55.794Z,99.90
2022-08-03T04:46:24.444Z,99.90
2022-08-03T04:48:52.384Z,99.90
2022-08-03T04:51:20.182Z,99.90
2022-08-03T04:53:48.500Z,99.90
2022-08-03T04:56:17.399Z,99.90
2022-08-03T04:58:45.199Z,99.90
2022-08-03T05:01:14.360Z,99.90
2022-08-03T05:03:42.083Z,99.90
2022-08-03T05:06:11.354Z,99.90
2022-08-03T05:08:41.228Z,99.90
2022-08-03T05:11:14.991Z,99.90
2022-08-03T05:13:42.944Z,99.90
2022-08-03T05:16:11.796Z,99.90
2022-08-03T05:18:40.884Z,99.90
2022-08-03T05:21:08.645Z,99.90
2022-08-03T05:23:37.773Z,99.90
2022-08-03T05:26:05.517Z,99.90
2022-08-03T05:28:33.287Z,99.90
2022-08-03T05:31:01.042Z,99.90
2022-08-03T05:33:28.874Z,99.90
2022-08-03T05:36:03.915Z,99.90
2022-08-03T05:38:35.014Z,99.90
2022-08-03T05:41:22.032Z,99.90
2022-08-03T05:43:51.908Z,99.90
2022-08-03T05:46:20.434Z,99.90
2022-08-03T05:48:48.184Z,99.90
2022-08-03T05:51:17.356Z,99.90
2022-08-03T05:53:45.499Z,99.90
2022-08-03T05:56:15.940Z,99.90
2022-08-03T05:58:45.108Z,99.90
2022-08-03T06:01:12.931Z,99.90
2022-08-03T06:03:40.748Z,99.90
2022-08-03T06:06:08.511Z,99.90
2022-08-03T06:08:38.182Z,99.90
2022-08-03T06:11:05.912Z,99.90
2022-08-03T06:13:33.725Z,99.90
2022-08-03T06:16:01.473Z,99.90
2022-08-03T06:18:29.190Z,99.90
2022-08-03T06:20:57.004Z,99.90
2022-08-03T06:23:52.893Z,99.90
2022-08-03T06:26:13.927Z,99.90
2022-08-03T06:28:52.758Z,99.90
2022-08-03T06:31:22.799Z,99.90
2022-08-03T06:34:32.770Z,99.90
2022-08-03T06:36:38.502Z,99.90
2022-08-03T06:39:06.267Z,99.90
2022-08-03T06:41:38.262Z,99.90
2022-08-03T06:44:12.436Z,99.90
2022-08-03T06:46:40.479Z,99.90
2022-08-03T06:49:08.520Z,99.90
2022-08-03T06:52:03.000Z,99.90
2022-08-03T06:54:24.588Z,99.90
2022-08-03T06:56:54.034Z,99.90
2022-08-03T07:00:08.850Z,99.90
2022-08-03T07:02:10.382Z,99.90
2022-08-03T07:04:38.280Z,99.90
2022-08-03T07:07:06.038Z,99.80
2022-08-03T07:09:34.644Z,99.80
2022-08-03T07:12:04.409Z,98.90
2022-08-03T07:14:32.098Z,98.90
2022-08-03T07:16:59.824Z,98.50
2022-08-03T07:19:27.536Z,98.70
2022-08-03T07:21:55.467Z,97.80
2022-08-03T07:24:30.135Z,97.70
2022-08-03T07:26:57.915Z,98.10
2022-08-03T07:29:26.991Z,96.60
2022-08-03T07:31:54.728Z,96.80
2022-08-03T07:34:22.534Z,96.40
2022-08-03T07:36:50.206Z,95.90
2022-08-03T07:39:18.279Z,96.20
2022-08-03T07:41:46.260Z,96.00
2022-08-03T07:44:14.539Z,96.30
2022-08-03T07:46:43.642Z,95.20
2022-08-03T07:49:12.000Z,95.50
2022-08-03T07:51:39.913Z,94.50
2022-08-03T07:54:07.785Z,94.70
2022-08-03T07:56:35.761Z,94.60
2022-08-03T07:59:03.852Z,93.60
2022-08-03T08:01:32.950Z,94.00
2022-08-03T08:04:02.981Z,93.50
2022-08-03T08:06:32.592Z,92.90
2022-08-03T08:09:02.259Z,93.30
2022-08-03T08:11:30.028Z,92.20
2022-08-03T08:13:57.827Z,92.70
2022-08-03T08:16:25.523Z,92.00
2022-08-03T08:18:53.236Z,91.80
2022-08-03T08:21:22.422Z,91.50
2022-08-03T08:23:55.629Z,92.80
2022-08-03T08:26:25.636Z,91.70
2022-08-03T08:28:53.495Z,90.40
2022-08-03T08:31:21.203Z,90.90
2022-08-03T08:34:03.603Z,90.00
2022-08-03T08:36:34.293Z,90.90
2022-08-03T08:39:02.290Z,88.90
2022-08-03T08:41:33.693Z,90.40
2022-08-03T08:44:01.520Z,88.60
2022-08-03T08:46:30.706Z,88.80
2022-08-03T08:48:58.806Z,88.50
2022-08-03T08:51:59.047Z,86.90
2022-08-03T08:54:19.126Z,86.80
2022-08-03T08:56:47.151Z,87.10
2022-08-03T08:59:15.328Z,85.90
2022-08-03T09:01:44.163Z,84.60
2022-08-03T09:04:12.163Z,81.60
2022-08-03T09:06:39.854Z,82.70
2022-08-03T09:09:08.226Z,81.20
2022-08-03T09:11:52.358Z,78.40
2022-08-03T09:14:37.247Z,79.00
2022-08-03T09:17:14.726Z,79.10
2022-08-03T09:20:02.826Z,80.60
2022-08-03T09:22:33.320Z,79.20
2022-08-03T09:25:25.345Z,78.10
2022-08-03T09:27:54.187Z,76.70
2022-08-03T09:30:34.206Z,75.70
2022-08-03T09:33:03.072Z,74.90
2022-08-03T09:38:23.849Z,76.40
2022-08-03T09:40:54.815Z,74.40
2022-08-03T09:43:28.502Z,73.60
2022-08-03T09:46:03.543Z,73.30
2022-08-03T09:48:31.919Z,73.30
2022-08-03T09:51:13.196Z,72.20
2022-08-03T09:53:59.283Z,73.50
2022-08-03T09:56:38.566Z,72.50
2022-08-03T09:59:08.033Z,71.60
2022-08-03T10:01:37.211Z,70.90
2022-08-03T10:04:05.546Z,71.00
2022-08-03T10:06:33.784Z,72.70
2022-08-03T10:09:08.648Z,71.30
2022-08-03T10:11:41.359Z,69.70
2022-08-03T10:14:18.611Z,70.40
2022-08-03T10:16:47.352Z,69.40
2022-08-03T10:19:15.673Z,69.50
2022-08-03T10:21:47.573Z,68.70
2022-08-03T10:24:20.235Z,69.70
2022-08-03T10:26:49.774Z,69.30
2022-08-03T10:29:24.468Z,69.70
2022-08-03T10:31:57.746Z,68.40
2022-08-03T10:34:27.479Z,69.20
2022-08-03T10:36:57.339Z,68.60
2022-08-03T10:39:26.696Z,67.40
2022-08-03T10:41:55.244Z,67.00
2022-08-03T10:44:25.745Z,67.70
2022-08-03T10:46:53.853Z,66.70
2022-08-03T10:49:34.972Z,66.70
2022-08-03T10:52:10.439Z,66.50
2022-08-03T10:55:03.312Z,66.00
2022-08-03T10:57:48.920Z,65.90
2022-08-03T11:00:19.638Z,64.90
2022-08-03T11:03:03.239Z,65.40
2022-08-03T11:05:31.788Z,65.60
2022-08-03T11:08:18.390Z,66.10
2022-08-03T11:10:46.544Z,64.90
2022-08-03T11:13:16.917Z,63.60
2022-08-03T11:15:47.300Z,63.60
2022-08-03T11:18:15.394Z,63.20
2022-08-03T11:20:46.943Z,63.60
2022-08-03T11:23:15.191Z,63.00
2022-08-03T11:26:01.704Z,63.90
2022-08-03T11:28:30.634Z,64.50
2022-08-03T11:31:46.697Z,63.90
2022-08-03T11:34:08.002Z,63.00
2022-08-03T11:36:50.594Z,63.80
2022-08-03T11:39:18.328Z,62.10
2022-08-03T11:41:46.123Z,61.90
2022-08-03T11:44:38.137Z,62.00
2022-08-03T11:47:07.325Z,61.70
2022-08-03T11:49:35.362Z,61.10
2022-08-03T11:52:03.216Z,61.10
2022-08-03T11:54:31.262Z,61.00
2022-08-03T11:56:59.082Z,60.50
2022-08-03T11:59:32.657Z,60.90
2022-08-03T12:02:08.551Z,60.30
2022-08-03T12:04:50.286Z,59.80
2022-08-03T12:07:25.871Z,61.10
2022-08-03T12:10:07.542Z,59.30
2022-08-03T12:12:35.266Z,58.40
2022-08-03T12:15:03.244Z,58.80
2022-08-03T12:17:35.430Z,58.50
2022-08-03T12:20:03.593Z,60.50
2022-08-03T12:22:34.194Z,60.90
2022-08-03T12:25:01.965Z,59.30
2022-08-03T12:27:29.955Z,59.30
2022-08-03T12:29:59.277Z,59.80
2022-08-03T12:32:27.262Z,60.60
2022-08-03T12:35:00.091Z,59.50
2022-08-03T12:37:28.461Z,59.10
2022-08-03T12:40:02.289Z,59.60
2022-08-03T12:42:35.439Z,59.40
2022-08-03T12:45:18.237Z,59.00
2022-08-03T12:47:53.000Z,58.50
2022-08-03T12:50:31.253Z,58.30
2022-08-03T12:53:00.052Z,58.00
2022-08-03T12:55:57.373Z,58.00
2022-08-03T12:58:33.306Z,58.10
2022-08-03T13:01:01.001Z,57.60
2022-08-03T13:03:42.603Z,57.30
2022-08-03T13:06:15.260Z,57.20
2022-08-03T13:08:43.502Z,56.60
2022-08-03T13:11:21.226Z,57.50
2022-08-03T13:13:49.400Z,56.60
2022-08-03T13:16:19.343Z,56.70
2022-08-03T13:18:48.154Z,57.00
2022-08-03T13:21:17.579Z,56.50
2022-08-03T13:23:45.869Z,56.30
2022-08-03T13:26:13.793Z,55.70
2022-08-03T13:28:41.510Z,55.80
2022-08-03T13:31:09.295Z,54.80
2022-08-03T13:33:38.982Z,54.50
2022-08-03T13:36:06.975Z,53.60
2022-08-03T13:38:36.150Z,53.40
2022-08-03T13:41:04.962Z,54.30
2022-08-03T13:43:33.044Z,54.20
2022-08-03T13:46:00.755Z,54.10
2022-08-03T13:48:37.010Z,53.80
2022-08-03T13:51:22.255Z,52.90
2022-08-03T13:53:52.174Z,54.20
2022-08-03T13:56:19.903Z,52.80
2022-08-03T13:58:47.641Z,53.30
2022-08-03T14:01:15.507Z,53.20
2022-08-03T14:03:43.263Z,53.40
2022-08-03T14:06:10.995Z,53.50
2022-08-03T14:08:38.756Z,54.10
2022-08-03T14:11:07.821Z,54.10
2022-08-03T14:13:35.519Z,53.60
2022-08-03T14:16:03.311Z,53.60
2022-08-03T14:18:33.417Z,53.40
2022-08-03T14:21:05.928Z,54.30
2022-08-03T14:23:34.725Z,53.90
2022-08-03T14:26:02.454Z,54.90
2022-08-03T14:28:31.561Z,53.90
2022-08-03T14:30:59.517Z,53.30
2022-08-03T14:33:28.309Z,53.20
2022-08-03T14:35:56.055Z,53.60
2022-08-03T14:38:24.067Z,53.80
2022-08-03T14:40:53.008Z,53.70
2022-08-03T14:43:21.204Z,53.80
2022-08-03T14:45:52.200Z,53.90
2022-08-03T14:50:24.337Z,53.90
2022-08-03T14:51:07.813Z,54.10
2022-08-03T14:53:35.642Z,54.30
2022-08-03T14:56:09.451Z,54.10
2022-08-03T14:58:38.061Z,54.10
2022-08-03T15:02:06.364Z,53.80
2022-08-03T15:03:55.448Z,54.30
2022-08-03T15:06:23.160Z,54.10
2022-08-03T15:09:13.852Z,54.30
2022-08-03T15:11:38.949Z,54.60
2022-08-03T15:14:09.392Z,54.30
2022-08-03T15:16:39.019Z,54.70
2022-08-03T15:19:59.562Z,54.70
2022-08-03T15:21:55.069Z,54.10
2022-08-03T15:24:22.813Z,54.60
2022-08-03T15:26:51.416Z,54.30
2022-08-03T15:30:06.206Z,54.10
2022-08-03T15:32:09.660Z,54.10
2022-08-03T15:34:37.558Z,54.30
2022-08-03T15:37:16.630Z,54.70
2022-08-03T15:39:59.126Z,54.80
2022-08-03T15:42:27.895Z,55.20
2022-08-03T15:44:56.142Z,55.00
2022-08-03T15:47:25.466Z,54.50
2022-08-03T15:49:53.375Z,54.70
2022-08-03T15:52:21.200Z,54.50
2022-08-03T15:54:48.928Z,54.90
2022-08-03T15:57:16.654Z,55.20
2022-08-03T15:59:44.404Z,55.10
2022-08-03T16:02:12.139Z,55.30
2022-08-03T16:04:41.212Z,55.10
2022-08-03T16:07:08.971Z,55.10
2022-08-03T16:09:42.023Z,54.70
2022-08-03T16:12:13.280Z,54.80
2022-08-03T16:14:52.412Z,55.60
2022-08-03T16:17:20.777Z,56.00
2022-08-03T16:19:50.089Z,56.40
2022-08-03T16:22:19.672Z,56.30
2022-08-03T16:24:50.778Z,56.70
2022-08-03T16:27:58.116Z,57.00
2022-08-03T16:30:07.007Z,56.50
2022-08-03T16:32:34.927Z,56.90
2022-08-03T16:35:04.009Z,56.80
2022-08-03T16:37:39.524Z,57.00
2022-08-03T16:40:17.316Z,56.90
2022-08-03T16:42:47.158Z,57.00
2022-08-03T16:45:14.867Z,57.30
2022-08-03T16:47:42.651Z,57.40
2022-08-03T16:50:19.005Z,58.00
2022-08-03T16:52:48.318Z,57.70
2022-08-03T16:55:42.836Z,58.00
2022-08-03T16:58:04.889Z,58.10
2022-08-03T17:00:41.846Z,59.20
2022-08-03T17:03:19.135Z,58.60
2022-08-03T17:05:50.836Z,58.80
2022-08-03T17:08:27.271Z,58.10
2022-08-03T17:10:55.651Z,58.30
2022-08-03T17:13:39.484Z,58.50
2022-08-03T17:16:09.308Z,59.00
2022-08-03T17:18:39.185Z,58.60
2022-08-03T17:21:11.707Z,58.90
2022-08-03T17:23:40.607Z,59.10
2022-08-03T17:26:20.166Z,59.40
2022-08-03T17:28:56.485Z,59.50
2022-08-03T17:31:31.269Z,58.90
2022-08-03T17:34:00.612Z,59.50
2022-08-03T17:37:00.861Z,58.70
2022-08-03T17:39:30.757Z,59.60
2022-08-03T17:42:05.284Z,59.00
2022-08-03T17:44:53.417Z,59.70
2022-08-03T17:47:21.575Z,60.20
2022-08-03T17:49:49.440Z,60.90
2022-08-03T17:52:22.442Z,61.20
2022-08-03T17:55:55.441Z,62.00
2022-08-03T17:58:02.737Z,61.90
2022-08-03T18:00:51.804Z,61.40
2022-08-03T18:03:24.030Z,63.10
2022-08-03T18:06:12.036Z,64.00
2022-08-03T18:08:45.161Z,64.30
2022-08-03T18:11:15.206Z,66.80
2022-08-03T18:13:57.576Z,67.20
2022-08-03T18:16:28.948Z,67.50
2022-08-03T18:18:58.071Z,68.00
2022-08-03T18:21:28.095Z,68.90
2022-08-03T18:24:19.639Z,69.20
2022-08-03T18:26:49.369Z,70.10
2022-08-03T18:29:17.628Z,69.60
2022-08-03T18:32:01.532Z,69.50
2022-08-03T18:34:33.166Z,70.00
2022-08-03T18:37:04.349Z,70.40
2022-08-03T18:39:49.346Z,70.50
2022-08-03T18:42:19.372Z,71.00
2022-08-03T18:44:54.278Z,71.10
2022-08-03T18:47:50.907Z,71.40
2022-08-03T18:50:19.664Z,71.90
2022-08-03T18:52:53.161Z,72.50
2022-08-03T18:55:33.619Z,72.60
2022-08-03T18:58:17.676Z,73.10
2022-08-03T19:00:54.687Z,73.70
2022-08-03T19:03:42.723Z,74.10
2022-08-03T19:06:19.180Z,74.20
2022-08-03T19:08:50.135Z,73.80
2022-08-03T19:11:27.930Z,73.70
2022-08-03T19:13:57.489Z,73.30
2022-08-03T19:16:30.742Z,73.90
2022-08-03T19:19:00.046Z,73.30
2022-08-03T19:21:29.174Z,73.60
2022-08-03T19:24:00.599Z,73.70
2022-08-03T19:26:30.171Z,74.00
2022-08-03T19:28:59.556Z,73.50
2022-08-03T19:34:16.881Z,74.50
2022-08-03T19:36:45.604Z,74.60
2022-08-03T19:39:14.178Z,74.80
2022-08-03T19:41:45.006Z,75.30
2022-08-03T19:44:20.703Z,75.70
2022-08-03T19:46:50.779Z,75.50
2022-08-03T19:49:20.279Z,75.70
2022-08-03T19:52:02.512Z,75.70
2022-08-03T19:54:36.402Z,76.00
2022-08-03T19:57:15.878Z,76.30
2022-08-03T19:59:50.207Z,76.60
2022-08-03T20:02:26.873Z,77.00
2022-08-03T20:04:56.042Z,76.90
2022-08-03T20:07:23.837Z,78.20
2022-08-03T20:09:56.046Z,78.00
2022-08-03T20:12:27.779Z,77.60
2022-08-03T20:14:56.522Z,78.30
2022-08-03T20:17:54.361Z,78.60
2022-08-03T20:20:12.301Z,80.00
2022-08-03T20:22:45.530Z,80.20
2022-08-03T20:25:16.358Z,80.30
2022-08-03T20:28:05.883Z,82.60
2022-08-03T20:30:36.084Z,82.90
2022-08-03T20:33:05.111Z,78.40
2022-08-03T20:35:34.241Z,77.90
2022-08-03T20:38:02.295Z,77.80
2022-08-03T20:40:30.068Z,77.60
2022-08-03T20:42:59.719Z,78.00
2022-08-03T20:46:00.296Z,77.70
2022-08-03T20:48:18.167Z,77.70
2022-08-03T20:50:49.935Z,77.70
2022-08-03T20:53:45.702Z,76.80
2022-08-03T20:56:05.694Z,77.10
2022-08-03T20:58:36.835Z,77.80
2022-08-03T21:01:04.563Z,77.50
2022-08-03T21:03:41.123Z,77.20
2022-08-03T21:06:27.374Z,76.80
2022-08-03T21:09:03.882Z,76.30
2022-08-03T21:11:41.937Z,76.60
2022-08-03T21:13:02.401Z,74.30
2022-08-03T21:14:13.985Z,77.20
2022-08-03T21:16:42.990Z,77.40
2022-08-03T21:19:11.159Z,76.30
2022-08-03T21:21:39.720Z,76.20
2022-08-03T21:24:10.752Z,76.50
2022-08-03T21:26:39.646Z,76.50
2022-08-03T21:29:08.643Z,76.60
2022-08-03T21:31:39.984Z,77.90
2022-08-03T21:34:07.759Z,76.30
2022-08-03T21:36:36.300Z,76.80
2022-08-03T21:39:05.345Z,76.40
2022-08-03T21:41:33.497Z,76.60
2022-08-03T21:44:02.128Z,76.40
2022-08-03T21:46:31.350Z,76.60
2022-08-03T21:50:04.877Z,76.70
2022-08-03T21:51:50.143Z,76.80
2022-08-03T21:54:18.812Z,76.40
2022-08-03T21:56:47.978Z,77.20
2022-08-03T21:59:17.825Z,77.00
2022-08-03T22:01:48.927Z,76.50
2022-08-03T22:04:50.613Z,78.10
2022-08-03T22:07:09.657Z,79.10
2022-08-03T22:09:37.621Z,77.40
2022-08-03T22:12:06.338Z,77.90
2022-08-03T22:14:34.214Z,78.50
2022-08-03T22:17:03.494Z,80.00
2022-08-03T22:19:36.193Z,79.10
2022-08-03T22:22:05.985Z,78.70
2022-08-03T22:24:36.147Z,78.10
2022-08-03T22:27:21.597Z,78.50
2022-08-03T22:29:50.101Z,78.60
2022-08-03T22:32:18.038Z,80.60
2022-08-03T22:34:48.038Z,79.10
2022-08-03T22:37:16.991Z,81.50
2022-08-03T22:39:44.815Z,80.00
2022-08-03T22:42:13.055Z,79.40
2022-08-03T22:44:41.132Z,79.40
2022-08-03T22:47:09.830Z,79.90
2022-08-03T22:49:38.658Z,78.90
2022-08-03T22:52:08.446Z,79.20
2022-08-03T22:54:36.303Z,79.40
2022-08-03T22:57:04.374Z,80.80
2022-08-03T22:59:40.097Z,79.70
2022-08-03T23:02:16.843Z,80.30
2022-08-03T23:04:50.684Z,79.90
2022-08-03T23:07:21.038Z,79.30
2022-08-03T23:09:49.641Z,79.70
2022-08-03T23:12:18.543Z,79.60
2022-08-03T23:14:48.563Z,79.50
2022-08-03T23:17:16.511Z,80.10
2022-08-03T23:19:45.116Z,79.90
2022-08-03T23:22:29.703Z,79.70
2022-08-03T23:25:03.513Z,79.90
2022-08-03T23:27:31.733Z,81.30
2022-08-03T23:29:59.807Z,80.40
2022-08-03T23:32:28.055Z,81.00
2022-08-03T23:35:14.899Z,84.00
2022-08-03T23:38:22.360Z,83.60
2022-08-03T23:40:32.408Z,82.80
2022-08-03T23:43:02.023Z,81.20
2022-08-03T23:45:29.874Z,84.30
2022-08-03T23:47:57.598Z,83.50
2022-08-03T23:50:25.346Z,81.70
2022-08-03T23:52:56.612Z,84.90
2022-08-03T23:55:30.929Z,82.50
2022-08-03T23:58:04.055Z,82.10
